sensor_id;sensor_type;location;lat;lon;timestamp;temperature;humidity
33149;DHT22;19506;51.040;3.856;2022-07-29T00:01:21;22.20;93.00
33149;DHT22;19506;51.040;3.856;2022-07-29T00:03:47;22.20;93.40
33149;DHT22;19506;51.040;3.856;2022-07-29T00:06:14;22.20;93.40
33149;DHT22;19506;51.040;3.856;2022-07-29T00:08:40;22.10;93.50
33149;DHT22;19506;51.040;3.856;2022-07-29T00:11:06;22.10;93.80
33149;DHT22;19506;51.040;3.856;2022-07-29T00:13:31;22.10;93.90
33149;DHT22;19506;51.040;3.856;2022-07-29T00:15:57;22.10;94.20
33149;DHT22;19506;51.040;3.856;2022-07-29T00:18:23;22.00;94.40
33149;DHT22;19506;51.040;3.856;2022-07-29T00:20:48;22.10;93.90
33149;DHT22;19506;51.040;3.856;2022-07-29T00:23:14;22.10;94.10
33149;DHT22;19506;51.040;3.856;2022-07-29T00:25:40;22.10;93.60
33149;DHT22;19506;51.040;3.856;2022-07-29T00:28:05;22.10;94.50
33149;DHT22;19506;51.040;3.856;2022-07-29T00:30:31;22.10;94.50
33149;DHT22;19506;51.040;3.856;2022-07-29T00:32:57;22.10;94.50
33149;DHT22;19506;51.040;3.856;2022-07-29T00:35:23;22.10;94.40
33149;DHT22;19506;51.040;3.856;2022-07-29T00:38:07;22.10;93.70
33149;DHT22;19506;51.040;3.856;2022-07-29T00:40:33;22.10;94.20
33149;DHT22;19506;51.040;3.856;2022-07-29T00:42:59;22.00;94.00
33149;DHT22;19506;51.040;3.856;2022-07-29T00:45:25;22.10;93.20
33149;DHT22;19506;51.040;3.856;2022-07-29T00:47:51;22.10;93.30
33149;DHT22;19506;51.040;3.856;2022-07-29T00:50:16;22.10;94.00
33149;DHT22;19506;51.040;3.856;2022-07-29T00:52:43;22.10;93.00
33149;DHT22;19506;51.040;3.856;2022-07-29T00:55:11;22.10;93.30
33149;DHT22;19506;51.040;3.856;2022-07-29T00:57:38;22.10;93.10
33149;DHT22;19506;51.040;3.856;2022-07-29T01:00:06;22.10;93.40
33149;DHT22;19506;51.040;3.856;2022-07-29T01:02:32;22.00;92.70
33149;DHT22;19506;51.040;3.856;2022-07-29T01:04:58;22.00;93.00
33149;DHT22;19506;51.040;3.856;2022-07-29T01:07:25;22.00;92.80
33149;DHT22;19506;51.040;3.856;2022-07-29T01:09:53;22.10;92.70
33149;DHT22;19506;51.040;3.856;2022-07-29T01:12:25;22.00;92.60
33149;DHT22;19506;51.040;3.856;2022-07-29T01:14:52;22.00;92.50
33149;DHT22;19506;51.040;3.856;2022-07-29T01:20:02;21.90;92.60
33149;DHT22;19506;51.040;3.856;2022-07-29T01:23:01;21.90;92.60
33149;DHT22;19506;51.040;3.856;2022-07-29T01:25:58;21.90;92.60
33149;DHT22;19506;51.040;3.856;2022-07-29T01:28:53;21.90;92.90
33149;DHT22;19506;51.040;3.856;2022-07-29T01:31:28;21.80;92.60
33149;DHT22;19506;51.040;3.856;2022-07-29T01:34:00;21.80;92.80
33149;DHT22;19506;51.040;3.856;2022-07-29T01:36:43;21.80;92.80
33149;DHT22;19506;51.040;3.856;2022-07-29T01:39:14;21.70;92.80
33149;DHT22;19506;51.040;3.856;2022-07-29T01:41:59;21.70;92.90
33149;DHT22;19506;51.040;3.856;2022-07-29T01:44:43;21.70;93.00
33149;DHT22;19506;51.040;3.856;2022-07-29T01:47:13;21.70;92.60
33149;DHT22;19506;51.040;3.856;2022-07-29T01:49:45;21.70;92.60
33149;DHT22;19506;51.040;3.856;2022-07-29T01:52:19;21.70;92.70
33149;DHT22;19506;51.040;3.856;2022-07-29T01:54:50;21.70;92.90
33149;DHT22;19506;51.040;3.856;2022-07-29T01:57:18;21.70;92.80
33149;DHT22;19506;51.040;3.856;2022-07-29T01:59:46;21.70;92.80
33149;DHT22;19506;51.040;3.856;2022-07-29T02:02:15;21.60;93.30
33149;DHT22;19506;51.040;3.856;2022-07-29T02:04:43;21.60;93.90
33149;DHT22;19506;51.040;3.856;2022-07-29T02:07:13;21.50;94.40
33149;DHT22;19506;51.040;3.856;2022-07-29T02:09:41;21.60;94.60
33149;DHT22;19506;51.040;3.856;2022-07-29T02:12:08;21.60;94.30
33149;DHT22;19506;51.040;3.856;2022-07-29T02:14:42;21.50;95.20
33149;DHT22;19506;51.040;3.856;2022-07-29T02:17:10;21.40;95.50
33149;DHT22;19506;51.040;3.856;2022-07-29T02:19:37;21.40;95.50
33149;DHT22;19506;51.040;3.856;2022-07-29T02:22:04;21.40;95.20
33149;DHT22;19506;51.040;3.856;2022-07-29T02:24:33;21.40;95.70
33149;DHT22;19506;51.040;3.856;2022-07-29T02:27:01;21.40;95.40
33149;DHT22;19506;51.040;3.856;2022-07-29T02:29:28;21.40;95.30
33149;DHT22;19506;51.040;3.856;2022-07-29T02:31:57;21.40;95.70
33149;DHT22;19506;51.040;3.856;2022-07-29T02:34:25;21.30;96.20
33149;DHT22;19506;51.040;3.856;2022-07-29T02:36:51;21.30;96.00
33149;DHT22;19506;51.040;3.856;2022-07-29T02:39:18;21.30;96.20
33149;DHT22;19506;51.040;3.856;2022-07-29T02:41:52;21.20;96.10
33149;DHT22;19506;51.040;3.856;2022-07-29T02:44:23;21.20;96.20
33149;DHT22;19506;51.040;3.856;2022-07-29T02:51:57;21.20;95.70
33149;DHT22;19506;51.040;3.856;2022-07-29T02:57:36;21.20;96.20
33149;DHT22;19506;51.040;3.856;2022-07-29T03:00:07;21.10;95.80
33149;DHT22;19506;51.040;3.856;2022-07-29T03:02:38;21.10;96.30
33149;DHT22;19506;51.040;3.856;2022-07-29T03:05:07;21.10;96.60
33149;DHT22;19506;51.040;3.856;2022-07-29T03:07:34;21.10;96.40
33149;DHT22;19506;51.040;3.856;2022-07-29T03:10:01;21.10;96.30
33149;DHT22;19506;51.040;3.856;2022-07-29T03:12:28;21.10;96.10
33149;DHT22;19506;51.040;3.856;2022-07-29T03:14:55;21.00;96.20
33149;DHT22;19506;51.040;3.856;2022-07-29T03:17:21;20.90;96.60
33149;DHT22;19506;51.040;3.856;2022-07-29T03:19:47;20.80;96.90
33149;DHT22;19506;51.040;3.856;2022-07-29T03:22:13;20.90;96.70
33149;DHT22;19506;51.040;3.856;2022-07-29T03:24:39;20.90;97.00
33149;DHT22;19506;51.040;3.856;2022-07-29T03:27:05;20.80;96.90
33149;DHT22;19506;51.040;3.856;2022-07-29T03:29:31;20.80;96.90
33149;DHT22;19506;51.040;3.856;2022-07-29T03:31:57;20.80;97.30
33149;DHT22;19506;51.040;3.856;2022-07-29T03:34:23;20.90;97.40
33149;DHT22;19506;51.040;3.856;2022-07-29T03:36:49;20.80;97.10
33149;DHT22;19506;51.040;3.856;2022-07-29T03:39:18;20.90;97.10
33149;DHT22;19506;51.040;3.856;2022-07-29T03:41:47;20.90;97.30
33149;DHT22;19506;51.040;3.856;2022-07-29T03:44:16;20.80;97.50
33149;DHT22;19506;51.040;3.856;2022-07-29T03:46:44;20.80;97.40
33149;DHT22;19506;51.040;3.856;2022-07-29T03:49:11;20.70;97.70
33149;DHT22;19506;51.040;3.856;2022-07-29T03:51:38;20.70;98.00
33149;DHT22;19506;51.040;3.856;2022-07-29T03:54:05;20.70;98.00
33149;DHT22;19506;51.040;3.856;2022-07-29T03:56:32;20.70;98.00
33149;DHT22;19506;51.040;3.856;2022-07-29T03:59:02;20.70;98.10
33149;DHT22;19506;51.040;3.856;2022-07-29T04:01:29;20.70;98.50
33149;DHT22;19506;51.040;3.856;2022-07-29T04:03:56;20.60;98.50
33149;DHT22;19506;51.040;3.856;2022-07-29T04:06:22;20.60;98.50
33149;DHT22;19506;51.040;3.856;2022-07-29T04:08:47;20.60;98.70
33149;DHT22;19506;51.040;3.856;2022-07-29T04:11:13;20.60;98.70
33149;DHT22;19506;51.040;3.856;2022-07-29T04:13:39;20.60;98.60
33149;DHT22;19506;51.040;3.856;2022-07-29T04:16:04;20.60;98.60
33149;DHT22;19506;51.040;3.856;2022-07-29T04:18:30;20.50;98.60
33149;DHT22;19506;51.040;3.856;2022-07-29T04:20:56;20.50;98.60
33149;DHT22;19506;51.040;3.856;2022-07-29T04:23:24;20.50;98.70
33149;DHT22;19506;51.040;3.856;2022-07-29T04:25:50;20.50;98.70
33149;DHT22;19506;51.040;3.856;2022-07-29T04:28:15;20.50;98.90
33149;DHT22;19506;51.040;3.856;2022-07-29T04:30:41;20.40;98.60
33149;DHT22;19506;51.040;3.856;2022-07-29T04:33:07;20.40;98.80
33149;DHT22;19506;51.040;3.856;2022-07-29T04:35:37;20.40;98.90
33149;DHT22;19506;51.040;3.856;2022-07-29T04:38:04;20.40;99.00
33149;DHT22;19506;51.040;3.856;2022-07-29T04:40:30;20.40;98.90
33149;DHT22;19506;51.040;3.856;2022-07-29T04:42:56;20.30;99.00
33149;DHT22;19506;51.040;3.856;2022-07-29T04:45:22;20.30;99.20
33149;DHT22;19506;51.040;3.856;2022-07-29T04:47:47;20.30;99.30
33149;DHT22;19506;51.040;3.856;2022-07-29T04:50:13;20.30;99.40
33149;DHT22;19506;51.040;3.856;2022-07-29T04:52:40;20.30;99.50
33149;DHT22;19506;51.040;3.856;2022-07-29T04:55:06;20.30;99.50
33149;DHT22;19506;51.040;3.856;2022-07-29T04:57:32;20.30;99.80
33149;DHT22;19506;51.040;3.856;2022-07-29T04:59:58;20.20;99.90
33149;DHT22;19506;51.040;3.856;2022-07-29T05:02:23;20.20;99.70
33149;DHT22;19506;51.040;3.856;2022-07-29T05:04:49;20.20;99.90
33149;DHT22;19506;51.040;3.856;2022-07-29T05:07:15;20.20;99.90
33149;DHT22;19506;51.040;3.856;2022-07-29T05:09:40;20.20;99.90
33149;DHT22;19506;51.040;3.856;2022-07-29T05:12:06;20.20;99.90
33149;DHT22;19506;51.040;3.856;2022-07-29T05:14:32;20.20;99.90
33149;DHT22;19506;51.040;3.856;2022-07-29T05:16:58;20.20;99.90
33149;DHT22;19506;51.040;3.856;2022-07-29T05:19:24;20.20;99.90
33149;DHT22;19506;51.040;3.856;2022-07-29T05:21:50;20.30;99.90
33149;DHT22;19506;51.040;3.856;2022-07-29T05:24:16;20.30;99.90
33149;DHT22;19506;51.040;3.856;2022-07-29T05:26:41;20.20;99.90
33149;DHT22;19506;51.040;3.856;2022-07-29T05:29:07;20.20;99.90
33149;DHT22;19506;51.040;3.856;2022-07-29T05:31:33;20.20;99.90
33149;DHT22;19506;51.040;3.856;2022-07-29T05:33:59;20.20;99.90
33149;DHT22;19506;51.040;3.856;2022-07-29T05:36:25;20.20;99.90
33149;DHT22;19506;51.040;3.856;2022-07-29T05:38:50;20.20;99.90
33149;DHT22;19506;51.040;3.856;2022-07-29T05:41:18;20.10;99.90
33149;DHT22;19506;51.040;3.856;2022-07-29T05:43:44;20.00;99.90
33149;DHT22;19506;51.040;3.856;2022-07-29T05:46:09;20.00;99.90
33149;DHT22;19506;51.040;3.856;2022-07-29T05:48:35;20.00;99.90
33149;DHT22;19506;51.040;3.856;2022-07-29T05:51:01;20.00;99.90
33149;DHT22;19506;51.040;3.856;2022-07-29T05:53:27;20.00;99.90
33149;DHT22;19506;51.040;3.856;2022-07-29T05:55:52;20.00;99.90
33149;DHT22;19506;51.040;3.856;2022-07-29T05:58:18;20.10;99.90
33149;DHT22;19506;51.040;3.856;2022-07-29T06:00:44;20.00;99.90
33149;DHT22;19506;51.040;3.856;2022-07-29T06:03:10;20.00;99.90
33149;DHT22;19506;51.040;3.856;2022-07-29T06:05:36;20.10;99.90
33149;DHT22;19506;51.040;3.856;2022-07-29T06:08:01;20.00;99.90
33149;DHT22;19506;51.040;3.856;2022-07-29T06:10:27;20.00;99.90
33149;DHT22;19506;51.040;3.856;2022-07-29T06:12:53;20.00;99.90
33149;DHT22;19506;51.040;3.856;2022-07-29T06:15:18;20.00;99.90
33149;DHT22;19506;51.040;3.856;2022-07-29T06:17:44;19.70;99.90
33149;DHT22;19506;51.040;3.856;2022-07-29T06:20:10;19.50;99.90
33149;DHT22;19506;51.040;3.856;2022-07-29T06:22:36;19.40;99.90
33149;DHT22;19506;51.040;3.856;2022-07-29T06:25:02;19.40;99.90
33149;DHT22;19506;51.040;3.856;2022-07-29T06:27:28;19.60;99.90
33149;DHT22;19506;51.040;3.856;2022-07-29T06:29:56;19.60;99.90
33149;DHT22;19506;51.040;3.856;2022-07-29T06:32:21;19.70;99.90
33149;DHT22;19506;51.040;3.856;2022-07-29T06:34:47;19.70;99.90
33149;DHT22;19506;51.040;3.856;2022-07-29T06:37:13;19.80;99.90
33149;DHT22;19506;51.040;3.856;2022-07-29T06:39:39;19.90;99.90
33149;DHT22;19506;51.040;3.856;2022-07-29T06:42:06;19.90;99.90
33149;DHT22;19506;51.040;3.856;2022-07-29T06:44:32;20.00;99.90
33149;DHT22;19506;51.040;3.856;2022-07-29T06:47:01;20.00;99.90
33149;DHT22;19506;51.040;3.856;2022-07-29T06:49:27;20.00;99.90
33149;DHT22;19506;51.040;3.856;2022-07-29T06:51:54;20.10;99.90
33149;DHT22;19506;51.040;3.856;2022-07-29T06:54:20;20.20;99.90
33149;DHT22;19506;51.040;3.856;2022-07-29T06:56:46;20.40;99.90
33149;DHT22;19506;51.040;3.856;2022-07-29T06:59:12;20.50;99.90
33149;DHT22;19506;51.040;3.856;2022-07-29T07:01:40;20.60;99.90
33149;DHT22;19506;51.040;3.856;2022-07-29T07:04:07;20.70;99.90
33149;DHT22;19506;51.040;3.856;2022-07-29T07:06:34;20.80;99.90
33149;DHT22;19506;51.040;3.856;2022-07-29T07:09:00;20.90;99.90
33149;DHT22;19506;51.040;3.856;2022-07-29T07:11:26;20.90;99.90
33149;DHT22;19506;51.040;3.856;2022-07-29T07:13:52;20.90;99.90
33149;DHT22;19506;51.040;3.856;2022-07-29T07:16:17;21.00;99.90
33149;DHT22;19506;51.040;3.856;2022-07-29T07:18:43;21.00;99.90
33149;DHT22;19506;51.040;3.856;2022-07-29T07:21:10;21.10;99.90
33149;DHT22;19506;51.040;3.856;2022-07-29T07:23:36;21.00;99.90
33149;DHT22;19506;51.040;3.856;2022-07-29T07:26:02;21.10;99.90
33149;DHT22;19506;51.040;3.856;2022-07-29T07:28:28;21.10;99.90
33149;DHT22;19506;51.040;3.856;2022-07-29T07:30:54;21.20;99.90
33149;DHT22;19506;51.040;3.856;2022-07-29T07:33:20;21.30;99.90
33149;DHT22;19506;51.040;3.856;2022-07-29T07:35:46;21.20;99.90
33149;DHT22;19506;51.040;3.856;2022-07-29T07:38:12;21.20;99.90
33149;DHT22;19506;51.040;3.856;2022-07-29T07:40:38;21.20;99.90
33149;DHT22;19506;51.040;3.856;2022-07-29T07:43:04;21.30;99.90
33149;DHT22;19506;51.040;3.856;2022-07-29T07:45:30;21.50;99.90
33149;DHT22;19506;51.040;3.856;2022-07-29T07:47:58;21.50;99.90
33149;DHT22;19506;51.040;3.856;2022-07-29T07:50:23;21.60;99.90
33149;DHT22;19506;51.040;3.856;2022-07-29T07:52:51;21.70;99.90
33149;DHT22;19506;51.040;3.856;2022-07-29T07:55:18;21.80;99.90
33149;DHT22;19506;51.040;3.856;2022-07-29T07:57:44;21.80;99.90
33149;DHT22;19506;51.040;3.856;2022-07-29T08:00:12;21.70;99.90
33149;DHT22;19506;51.040;3.856;2022-07-29T08:02:38;21.80;99.90
33149;DHT22;19506;51.040;3.856;2022-07-29T08:05:05;21.90;99.90
33149;DHT22;19506;51.040;3.856;2022-07-29T08:07:32;21.90;99.90
33149;DHT22;19506;51.040;3.856;2022-07-29T08:09:57;22.00;99.90
33149;DHT22;19506;51.040;3.856;2022-07-29T08:12:23;22.00;99.80
33149;DHT22;19506;51.040;3.856;2022-07-29T08:14:49;22.10;99.80
33149;DHT22;19506;51.040;3.856;2022-07-29T08:17:14;22.10;99.70
33149;DHT22;19506;51.040;3.856;2022-07-29T08:19:40;22.20;99.50
33149;DHT22;19506;51.040;3.856;2022-07-29T08:22:06;22.20;99.40
33149;DHT22;19506;51.040;3.856;2022-07-29T08:24:32;22.20;99.60
33149;DHT22;19506;51.040;3.856;2022-07-29T08:27:13;22.30;99.90
33149;DHT22;19506;51.040;3.856;2022-07-29T08:29:39;22.30;99.90
33149;DHT22;19506;51.040;3.856;2022-07-29T08:32:05;22.40;99.90
33149;DHT22;19506;51.040;3.856;2022-07-29T08:34:32;22.40;99.90
33149;DHT22;19506;51.040;3.856;2022-07-29T08:36:58;22.50;99.90
33149;DHT22;19506;51.040;3.856;2022-07-29T08:39:24;22.50;99.90
33149;DHT22;19506;51.040;3.856;2022-07-29T08:41:51;22.50;99.90
33149;DHT22;19506;51.040;3.856;2022-07-29T08:44:18;22.50;99.90
33149;DHT22;19506;51.040;3.856;2022-07-29T08:46:44;22.60;99.70
33149;DHT22;19506;51.040;3.856;2022-07-29T08:49:10;22.60;99.70
33149;DHT22;19506;51.040;3.856;2022-07-29T08:51:38;22.60;99.20
33149;DHT22;19506;51.040;3.856;2022-07-29T08:54:05;22.60;99.20
33149;DHT22;19506;51.040;3.856;2022-07-29T08:56:32;22.60;99.30
